createdAt,value
2023-03-05T00:01:42.541Z,17.80
2023-03-05T00:04:45.725Z,17.97
2023-03-05T00:07:49.017Z,17.53
2023-03-05T00:10:57.808Z,18.20
2023-03-05T00:14:04.700Z,17.97
2023-03-05T00:17:08.103Z,18.10
2023-03-05T00:20:12.261Z,17.90
2023-03-05T00:23:15.831Z,18.30
2023-03-05T00:26:19.072Z,32.50
2023-03-05T00:29:23.715Z,23.63
2023-03-05T00:32:26.957Z,21.27
2023-03-05T00:35:30.199Z,21.80
2023-03-05T00:38:33.407Z,18.80
2023-03-05T00:41:36.625Z,18.83
2023-03-05T00:44:41.164Z,20.63
2023-03-05T00:47:44.354Z,24.17
2023-03-05T00:50:47.870Z,18.33
2023-03-05T00:53:51.201Z,17.27
2023-03-05T00:56:54.352Z,18.60
2023-03-05T00:59:58.890Z,18.60
2023-03-05T01:03:02.080Z,18.87
2023-03-05T01:06:07.657Z,17.70
2023-03-05T01:09:10.876Z,18.07
2023-03-05T01:12:14.040Z,18.97
2023-03-05T01:15:18.750Z,16.03
2023-03-05T01:18:22.030Z,18.13
2023-03-05T01:21:25.260Z,17.70
2023-03-05T01:24:28.473Z,17.27
2023-03-05T01:27:31.660Z,17.23
2023-03-05T01:30:36.237Z,17.50
2023-03-05T01:33:40.099Z,17.57
2023-03-05T01:36:43.822Z,16.93
2023-03-05T01:39:47.060Z,17.00
2023-03-05T01:42:56.698Z,16.93
2023-03-05T01:46:34.797Z,17.07
2023-03-05T01:49:41.325Z,18.63
2023-03-05T01:52:49.225Z,15.60
2023-03-05T01:55:53.627Z,16.90
2023-03-05T01:59:03.605Z,17.00
2023-03-05T02:02:08.241Z,16.60
2023-03-05T02:05:14.879Z,17.20
2023-03-05T02:08:20.528Z,16.07
2023-03-05T02:11:23.773Z,16.30
2023-03-05T02:14:28.096Z,17.27
2023-03-05T02:17:32.126Z,16.07
2023-03-05T02:20:47.205Z,15.77
2023-03-05T02:23:51.785Z,15.63
2023-03-05T02:26:55.363Z,18.00
2023-03-05T02:29:58.534Z,17.33
2023-03-05T02:33:01.708Z,17.63
2023-03-05T02:36:05.340Z,16.93
2023-03-05T02:39:10.801Z,16.83
2023-03-05T02:42:14.079Z,16.67
2023-03-05T02:45:17.632Z,17.67
2023-03-05T02:48:20.757Z,17.43
2023-03-05T02:51:24.011Z,16.20
2023-03-05T02:54:29.760Z,18.40
2023-03-05T02:57:32.911Z,16.87
2023-03-05T03:00:36.184Z,16.60
2023-03-05T03:03:39.562Z,17.50
2023-03-05T03:06:42.754Z,16.10
2023-03-05T03:09:47.272Z,15.90
2023-03-05T03:12:50.513Z,15.30
2023-03-05T03:16:03.390Z,16.27
2023-03-05T03:19:06.671Z,16.83
2023-03-05T03:22:10.939Z,16.40
2023-03-05T03:25:18.359Z,16.87
2023-03-05T03:28:21.496Z,15.77
2023-03-05T03:31:24.740Z,17.13
2023-03-05T03:34:28.534Z,15.77
2023-03-05T03:37:32.386Z,17.53
2023-03-05T03:40:37.489Z,18.73
2023-03-05T03:43:40.720Z,16.80
2023-03-05T03:46:45.860Z,15.67
2023-03-05T03:49:49.045Z,18.00
2023-03-05T03:52:52.266Z,16.40
2023-03-05T03:56:01.101Z,15.87
2023-03-05T03:59:04.444Z,15.70
2023-03-05T04:02:07.714Z,15.43
2023-03-05T04:05:11.355Z,15.83
2023-03-05T04:08:14.511Z,17.20
2023-03-05T04:11:19.864Z,16.57
2023-03-05T04:14:23.110Z,16.37
2023-03-05T04:17:26.390Z,16.87
2023-03-05T04:20:29.711Z,16.00
2023-03-05T04:23:32.883Z,15.07
2023-03-05T04:26:37.518Z,17.57
2023-03-05T04:29:40.680Z,16.63
2023-03-05T04:32:44.113Z,16.40
2023-03-05T04:35:47.424Z,16.27
2023-03-05T04:38:50.577Z,16.70
2023-03-05T04:41:55.142Z,14.57
2023-03-05T04:44:58.333Z,15.50
2023-03-05T04:48:01.726Z,16.10
2023-03-05T04:51:05.136Z,17.80
2023-03-05T04:54:08.320Z,17.37
2023-03-05T04:57:12.912Z,16.00
2023-03-05T05:00:18.304Z,15.00
2023-03-05T05:03:21.484Z,16.20
2023-03-05T05:06:24.683Z,16.17
2023-03-05T05:09:28.350Z,16.30
2023-03-05T05:12:33.180Z,16.93
2023-03-05T05:15:36.350Z,16.40
2023-03-05T05:18:39.695Z,16.93
2023-03-05T05:21:42.912Z,16.90
2023-03-05T05:24:46.125Z,17.03
2023-03-05T05:27:50.697Z,17.30
2023-03-05T05:30:54.174Z,17.50
2023-03-05T05:33:57.375Z,17.90
2023-03-05T05:37:00.566Z,18.00
2023-03-05T05:40:05.278Z,16.37
2023-03-05T05:43:09.826Z,17.30
2023-03-05T05:46:15.631Z,17.13
2023-03-05T05:49:18.855Z,16.60
2023-03-05T05:52:22.095Z,14.63
2023-03-05T05:55:25.255Z,16.13
2023-03-05T05:58:29.769Z,17.43
2023-03-05T06:01:34.852Z,17.00
2023-03-05T06:04:38.714Z,16.00
2023-03-05T06:07:41.953Z,16.53
2023-03-05T06:10:45.143Z,15.80
2023-03-05T06:13:50.275Z,16.37
2023-03-05T06:16:53.847Z,15.27
2023-03-05T06:19:57.213Z,15.03
2023-03-05T06:23:00.373Z,16.20
2023-03-05T06:26:05.936Z,16.40
2023-03-05T06:29:10.442Z,16.73
2023-03-05T06:32:13.669Z,14.77
2023-03-05T06:35:16.898Z,15.97
2023-03-05T06:38:20.107Z,15.70
2023-03-05T06:41:25.551Z,16.03
2023-03-05T06:44:30.336Z,16.13
2023-03-05T06:47:33.549Z,17.10
2023-03-05T06:50:37.064Z,15.43
2023-03-05T06:53:40.350Z,16.43
2023-03-05T06:56:45.502Z,16.43
2023-03-05T06:59:50.467Z,15.00
2023-03-05T07:02:53.761Z,15.70
2023-03-05T07:05:56.969Z,14.97
2023-03-05T07:09:01.920Z,17.87
2023-03-05T07:12:05.465Z,18.13
2023-03-05T07:15:11.181Z,15.77
2023-03-05T07:18:14.374Z,14.73
2023-03-05T07:21:20.489Z,16.20
2023-03-05T07:24:24.800Z,16.30
2023-03-05T07:27:28.025Z,16.10
2023-03-05T07:30:32.616Z,16.33
2023-03-05T07:33:37.264Z,16.63
2023-03-05T07:36:40.675Z,15.30
2023-03-05T07:39:46.330Z,16.50
2023-03-05T07:42:50.390Z,15.40
2023-03-05T07:45:55.015Z,16.70
2023-03-05T07:48:58.483Z,16.77
2023-03-05T07:52:01.668Z,17.87
2023-03-05T07:55:05.172Z,16.97
2023-03-05T07:58:08.354Z,17.50
2023-03-05T08:01:15.992Z,18.27
2023-03-05T08:04:19.254Z,16.80
2023-03-05T08:07:22.477Z,18.07
2023-03-05T08:10:25.783Z,16.07
2023-03-05T08:13:29.087Z,16.40
2023-03-05T08:16:33.657Z,19.33
2023-03-05T08:19:36.828Z,16.93
2023-03-05T08:22:40.094Z,17.60
2023-03-05T08:25:43.288Z,18.43
2023-03-05T08:28:46.591Z,18.73
2023-03-05T08:31:51.643Z,16.43
2023-03-05T08:34:58.490Z,17.70
2023-03-05T08:38:01.713Z,19.70
2023-03-05T08:41:05.404Z,18.40
2023-03-05T08:44:08.897Z,19.77
2023-03-05T08:47:13.496Z,19.67
2023-03-05T08:50:17.982Z,20.00
2023-03-05T08:53:21.241Z,21.97
2023-03-05T08:56:26.595Z,20.80
2023-03-05T08:59:29.984Z,22.07
2023-03-05T09:02:35.448Z,20.77
2023-03-05T09:05:39.204Z,21.43
2023-03-05T09:08:42.530Z,19.37
2023-03-05T09:11:45.786Z,20.70
2023-03-05T09:14:48.961Z,21.63
2023-03-05T09:17:53.564Z,21.30
2023-03-05T09:20:57.089Z,21.03
2023-03-05T09:24:00.667Z,21.40
2023-03-05T09:27:03.894Z,22.30
2023-03-05T09:30:08.392Z,20.47
2023-03-05T09:33:13.103Z,19.80
2023-03-05T09:36:21.036Z,18.83
2023-03-05T09:39:24.191Z,20.13
2023-03-05T09:42:39.868Z,19.27
2023-03-05T09:45:56.332Z,18.40
2023-03-05T09:49:09.568Z,18.80
2023-03-05T09:52:17.938Z,19.10
2023-03-05T09:55:27.286Z,20.00
2023-03-05T09:58:37.005Z,19.83
2023-03-05T10:01:43.873Z,17.93
2023-03-05T10:04:53.617Z,18.27
2023-03-05T10:08:02.252Z,18.30
2023-03-05T10:11:13.469Z,16.80
2023-03-05T10:14:23.634Z,18.30
2023-03-05T10:17:55.397Z,17.93
2023-03-05T10:21:06.583Z,17.07
2023-03-05T10:24:17.402Z,18.80
2023-03-05T10:27:23.359Z,18.00
2023-03-05T10:30:54.900Z,17.60
2023-03-05T10:34:11.589Z,17.87
2023-03-05T10:37:51.072Z,19.27
2023-03-05T10:40:56.890Z,17.73
2023-03-05T10:44:06.263Z,17.95
2023-03-05T10:47:18.294Z,18.40
2023-03-05T10:50:24.731Z,19.07
2023-03-05T10:53:33.526Z,18.10
2023-03-05T10:56:36.801Z,18.53
2023-03-05T10:59:42.702Z,18.95
2023-03-05T11:02:58.806Z,18.83
2023-03-05T11:06:05.085Z,18.73
2023-03-05T11:09:26.983Z,18.40
2023-03-05T11:12:32.377Z,18.08
2023-03-05T11:15:35.659Z,17.63
2023-03-05T11:18:39.522Z,18.45
2023-03-05T11:21:43.714Z,19.13
2023-03-05T11:25:06.302Z,18.10
2023-03-05T11:28:32.019Z,19.00
2023-03-05T11:31:36.680Z,19.40
2023-03-05T11:34:40.290Z,18.10
2023-03-05T11:37:44.812Z,18.40
2023-03-05T11:40:50.654Z,17.90
2023-03-05T11:43:55.640Z,20.10
2023-03-05T11:47:01.678Z,18.70
2023-03-05T11:50:18.235Z,17.17
2023-03-05T11:53:28.410Z,18.17
2023-03-05T11:56:36.360Z,17.97
2023-03-05T11:59:41.008Z,17.30
2023-03-05T12:02:45.715Z,17.33
2023-03-05T12:05:53.046Z,17.97
2023-03-05T12:08:59.458Z,16.60
2023-03-05T12:12:13.372Z,15.68
2023-03-05T12:15:47.511Z,18.98
2023-03-05T12:18:59.168Z,16.35
2023-03-05T12:22:04.541Z,18.02
2023-03-05T12:25:28.745Z,17.15
2023-03-05T12:28:58.283Z,17.17
2023-03-05T12:32:02.402Z,17.52
2023-03-05T12:35:06.987Z,15.75
2023-03-05T12:38:31.137Z,16.75
2023-03-05T12:41:37.673Z,16.10
2023-03-05T12:44:42.727Z,14.65
2023-03-05T12:47:47.188Z,16.83
2023-03-05T12:50:53.095Z,16.63
2023-03-05T12:53:57.524Z,16.27
2023-03-05T12:57:03.084Z,15.88
2023-03-05T13:00:13.731Z,15.52
2023-03-05T13:03:20.885Z,16.70
2023-03-05T13:06:28.763Z,17.42
2023-03-05T13:09:36.670Z,16.77
2023-03-05T13:12:41.696Z,16.83
2023-03-05T13:15:51.066Z,15.95
2023-03-05T13:18:56.994Z,16.35
2023-03-05T13:22:04.240Z,15.80
2023-03-05T13:25:20.931Z,15.52
2023-03-05T13:28:25.761Z,15.57
2023-03-05T13:31:31.973Z,16.75
2023-03-05T13:34:47.150Z,15.80
2023-03-05T13:37:52.120Z,15.93
2023-03-05T13:41:27.102Z,14.40
2023-03-05T13:44:32.942Z,14.93
2023-03-05T13:47:38.777Z,16.15
2023-03-05T13:50:42.701Z,15.73
2023-03-05T13:53:48.775Z,15.90
2023-03-05T13:56:57.420Z,15.60
2023-03-05T14:00:05.299Z,14.80
2023-03-05T14:03:23.014Z,15.40
2023-03-05T14:06:29.755Z,12.90
2023-03-05T14:09:46.464Z,13.23
2023-03-05T14:12:53.384Z,14.20
2023-03-05T14:16:08.573Z,12.63
2023-03-05T14:19:35.685Z,12.10
2023-03-05T14:22:42.669Z,12.10
2023-03-05T14:25:47.460Z,13.27
2023-03-05T14:28:56.026Z,13.27
2023-03-05T14:32:03.250Z,12.87
2023-03-05T14:35:19.829Z,13.10
2023-03-05T14:38:28.763Z,14.73
2023-03-05T14:41:45.155Z,11.53
2023-03-05T14:44:53.141Z,12.63
2023-03-05T14:48:00.413Z,12.67
2023-03-05T14:51:10.327Z,12.40
2023-03-05T14:54:22.317Z,14.13
2023-03-05T14:57:32.280Z,12.53
2023-03-05T15:00:36.611Z,11.97
2023-03-05T15:03:42.120Z,12.80
2023-03-05T15:06:51.364Z,15.17
2023-03-05T15:09:56.418Z,16.63
2023-03-05T15:13:01.961Z,15.17
2023-03-05T15:16:08.546Z,15.60
2023-03-05T15:19:15.259Z,14.40
2023-03-05T15:22:21.168Z,13.67
2023-03-05T15:25:29.201Z,13.90
2023-03-05T15:28:35.634Z,15.70
2023-03-05T15:31:43.115Z,13.43
2023-03-05T15:34:49.152Z,15.70
2023-03-05T15:37:55.951Z,15.30
2023-03-05T15:41:02.218Z,13.47
2023-03-05T15:44:07.024Z,13.57
2023-03-05T15:47:12.324Z,14.80
2023-03-05T15:50:16.508Z,12.93
2023-03-05T15:53:23.602Z,15.40
2023-03-05T15:56:28.516Z,13.23
2023-03-05T15:59:36.698Z,13.60
2023-03-05T16:02:41.161Z,13.40
2023-03-05T16:05:46.013Z,14.40
2023-03-05T16:08:53.430Z,14.10
2023-03-05T16:11:58.180Z,15.70
2023-03-05T16:15:03.425Z,13.30
2023-03-05T16:18:12.936Z,15.17
2023-03-05T16:21:16.899Z,14.03
2023-03-05T16:24:26.712Z,13.60
2023-03-05T16:27:32.488Z,14.07
2023-03-05T16:30:38.333Z,13.80
2023-03-05T16:33:42.856Z,15.03
2023-03-05T16:36:53.284Z,13.67
2023-03-05T16:40:01.434Z,13.37
2023-03-05T16:43:07.220Z,14.37
2023-03-05T16:46:13.053Z,14.00
2023-03-05T16:49:18.502Z,14.17
2023-03-05T16:52:23.515Z,15.50
2023-03-05T16:55:31.311Z,13.47
2023-03-05T16:58:36.454Z,15.50
2023-03-05T17:01:41.106Z,17.70
2023-03-05T17:04:46.652Z,17.13
2023-03-05T17:07:51.987Z,17.53
2023-03-05T17:10:59.550Z,17.70
2023-03-05T17:14:11.882Z,15.63
2023-03-05T17:17:16.658Z,14.90
2023-03-05T17:20:22.288Z,14.30
2023-03-05T17:23:30.571Z,15.07
2023-03-05T17:26:37.849Z,13.17
2023-03-05T17:29:44.315Z,15.60
2023-03-05T17:32:49.648Z,15.07
2023-03-05T17:35:56.106Z,14.40
2023-03-05T17:39:00.521Z,14.10
2023-03-05T17:42:07.058Z,15.90
2023-03-05T17:45:12.731Z,19.10
2023-03-05T17:48:18.916Z,17.00
2023-03-05T17:51:23.106Z,17.20
2023-03-05T17:54:28.431Z,16.57
2023-03-05T17:57:34.502Z,16.10
2023-03-05T18:00:38.859Z,15.93
2023-03-05T18:03:45.267Z,16.83
2023-03-05T18:06:52.568Z,14.80
2023-03-05T18:09:56.944Z,15.70
2023-03-05T18:13:04.286Z,16.57
2023-03-05T18:16:09.706Z,16.00
2023-03-05T18:19:15.403Z,22.57
2023-03-05T18:22:19.955Z,19.20
2023-03-05T18:25:31.483Z,19.07
2023-03-05T18:28:37.760Z,17.03
2023-03-05T18:31:48.613Z,17.00
2023-03-05T18:34:53.943Z,21.47
2023-03-05T18:38:00.123Z,18.10
2023-03-05T18:41:05.942Z,16.50
2023-03-05T18:44:14.573Z,17.83
2023-03-05T18:47:21.622Z,15.53
2023-03-05T18:50:28.942Z,15.30
2023-03-05T18:53:34.758Z,15.47
2023-03-05T18:56:39.602Z,18.50
2023-03-05T18:59:45.380Z,13.83
2023-03-05T19:02:51.706Z,14.70
2023-03-05T19:05:58.033Z,14.43
2023-03-05T19:09:09.223Z,14.27
2023-03-05T19:12:14.096Z,14.30
2023-03-05T19:15:21.423Z,14.93
2023-03-05T19:18:30.241Z,16.67
2023-03-05T19:21:35.302Z,15.57
2023-03-05T19:24:40.170Z,15.10
2023-03-05T19:27:45.316Z,13.20
2023-03-05T19:30:52.298Z,14.37
2023-03-05T19:33:57.272Z,13.50
2023-03-05T19:37:01.770Z,14.40
2023-03-05T19:40:07.307Z,15.17
2023-03-05T19:43:12.916Z,18.67
2023-03-05T19:46:18.981Z,19.07
2023-03-05T19:49:24.405Z,15.57
2023-03-05T19:52:29.275Z,18.77
2023-03-05T19:55:33.508Z,14.13
2023-03-05T19:58:43.297Z,13.83
2023-03-05T20:01:50.765Z,12.70
2023-03-05T20:04:58.293Z,13.27
2023-03-05T20:08:04.009Z,14.33
2023-03-05T20:11:09.316Z,13.33
2023-03-05T20:14:15.231Z,15.87
2023-03-05T20:17:21.180Z,13.50
2023-03-05T20:20:26.722Z,13.00
2023-03-05T20:23:32.300Z,14.40
2023-03-05T20:26:38.407Z,13.97
2023-03-05T20:29:46.578Z,13.93
2023-03-05T20:32:54.164Z,13.47
2023-03-05T20:35:59.468Z,11.47
2023-03-05T20:39:04.672Z,12.10
2023-03-05T20:42:09.285Z,12.80
2023-03-05T20:45:15.036Z,14.50
2023-03-05T20:48:22.699Z,15.93
2023-03-05T20:51:29.073Z,13.10
2023-03-05T20:54:34.152Z,13.07
2023-03-05T20:57:39.730Z,11.77
2023-03-05T21:00:47.213Z,15.30
2023-03-05T21:03:54.399Z,16.30
2023-03-05T21:06:59.068Z,17.30
2023-03-05T21:10:03.508Z,14.43
2023-03-05T21:13:07.801Z,12.83
2023-03-05T21:16:15.524Z,14.27
2023-03-05T21:19:21.004Z,14.93
2023-03-05T21:22:29.432Z,12.90
2023-03-05T21:25:34.670Z,11.53
2023-03-05T21:28:40.865Z,18.93
2023-03-05T21:31:45.625Z,11.63
2023-03-05T21:34:50.644Z,16.30
2023-03-05T21:37:55.313Z,16.53
2023-03-05T21:41:00.237Z,14.60
2023-03-05T21:44:06.796Z,13.17
2023-03-05T21:47:11.328Z,13.37
2023-03-05T21:50:17.731Z,15.60
2023-03-05T21:53:21.415Z,11.73
2023-03-05T21:56:25.997Z,15.30
2023-03-05T21:59:29.280Z,11.33
2023-03-05T22:02:32.438Z,12.20
2023-03-05T22:05:37.005Z,10.60
2023-03-05T22:08:40.343Z,9.53
2023-03-05T22:11:44.033Z,9.80
2023-03-05T22:14:47.225Z,10.77
2023-03-05T22:17:50.798Z,9.30
2023-03-05T22:20:56.077Z,10.53
2023-03-05T22:23:59.980Z,11.10
2023-03-05T22:27:03.148Z,10.00
2023-03-05T22:30:07.345Z,9.83
2023-03-05T22:33:13.442Z,10.10
2023-03-05T22:36:18.431Z,9.50
2023-03-05T22:39:21.631Z,9.83
2023-03-05T22:42:25.077Z,10.97
2023-03-05T22:45:29.893Z,9.97
2023-03-05T22:48:33.090Z,9.60
2023-03-05T22:51:37.960Z,9.90
2023-03-05T22:54:41.176Z,10.27
2023-03-05T22:57:44.559Z,9.90
2023-03-05T23:00:48.730Z,9.70
2023-03-05T23:03:57.362Z,8.83
2023-03-05T23:07:02.010Z,9.60
2023-03-05T23:10:08.898Z,8.77
2023-03-05T23:13:12.189Z,8.87
2023-03-05T23:16:15.359Z,9.00
2023-03-05T23:19:18.594Z,8.90
2023-03-05T23:22:23.458Z,8.87
2023-03-05T23:25:28.900Z,8.07
2023-03-05T23:28:32.351Z,8.77
2023-03-05T23:31:35.581Z,8.97
2023-03-05T23:34:38.768Z,8.97
2023-03-05T23:37:43.361Z,7.97
2023-03-05T23:40:48.701Z,8.87
2023-03-05T23:43:51.900Z,7.80
2023-03-05T23:46:55.055Z,8.27
2023-03-05T23:49:58.218Z,8.70
2023-03-05T23:53:04.870Z,8.97
2023-03-05T23:56:12.142Z,7.60
2023-03-05T23:59:15.345Z,9.10
